sensor_id;sensor_type;location;lat;lon;timestamp;P1;durP1;ratioP1;P2;durP2;ratioP2
8411;SDS011;4243;49.296;11.348;2022-08-14T00:02:20;121.97;;;3.70;;
8411;SDS011;4243;49.296;11.348;2022-08-14T00:04:49;121.60;;;3.80;;
8411;SDS011;4243;49.296;11.348;2022-08-14T00:07:17;120.40;;;3.37;;
8411;SDS011;4243;49.296;11.348;2022-08-14T00:09:45;121.63;;;3.43;;
8411;SDS011;4243;49.296;11.348;2022-08-14T00:12:33;120.40;;;3.37;;
8411;SDS011;4243;49.296;11.348;2022-08-14T00:15:08;121.57;;;3.20;;
8411;SDS011;4243;49.296;11.348;2022-08-14T00:17:47;120.50;;;3.10;;
8411;SDS011;4243;49.296;11.348;2022-08-14T00:20:20;121.90;;;3.50;;
8411;SDS011;4243;49.296;11.348;2022-08-14T00:23:07;121.77;;;3.73;;
8411;SDS011;4243;49.296;11.348;2022-08-14T00:25:43;121.90;;;3.50;;
8411;SDS011;4243;49.296;11.348;2022-08-14T00:28:31;121.83;;;3.43;;
8411;SDS011;4243;49.296;11.348;2022-08-14T00:31:03;121.27;;;3.23;;
8411;SDS011;4243;49.296;11.348;2022-08-14T00:33:33;121.77;;;3.33;;
8411;SDS011;4243;49.296;11.348;2022-08-14T00:36:18;121.37;;;3.53;;
8411;SDS011;4243;49.296;11.348;2022-08-14T00:39:07;122.27;;;3.70;;
8411;SDS011;4243;49.296;11.348;2022-08-14T00:41:38;122.27;;;4.97;;
8411;SDS011;4243;49.296;11.348;2022-08-14T00:44:07;123.07;;;5.33;;
8411;SDS011;4243;49.296;11.348;2022-08-14T00:46:36;123.37;;;6.50;;
8411;SDS011;4243;49.296;11.348;2022-08-14T00:49:04;123.77;;;6.57;;
8411;SDS011;4243;49.296;11.348;2022-08-14T00:51:36;123.87;;;7.03;;
8411;SDS011;4243;49.296;11.348;2022-08-14T00:54:06;124.07;;;7.07;;
8411;SDS011;4243;49.296;11.348;2022-08-14T00:56:46;124.40;;;7.50;;
8411;SDS011;4243;49.296;11.348;2022-08-14T00:59:22;125.17;;;9.27;;
8411;SDS011;4243;49.296;11.348;2022-08-14T01:01:55;124.63;;;8.60;;
8411;SDS011;4243;49.296;11.348;2022-08-14T01:04:26;125.53;;;10.13;;
8411;SDS011;4243;49.296;11.348;2022-08-14T01:07:17;126.27;;;10.70;;
8411;SDS011;4243;49.296;11.348;2022-08-14T01:09:48;126.00;;;10.80;;
8411;SDS011;4243;49.296;11.348;2022-08-14T01:12:22;125.30;;;7.80;;
8411;SDS011;4243;49.296;11.348;2022-08-14T01:14:56;124.00;;;7.10;;
8411;SDS011;4243;49.296;11.348;2022-08-14T01:17:28;123.43;;;5.67;;
8411;SDS011;4243;49.296;11.348;2022-08-14T01:20:18;123.57;;;5.30;;
8411;SDS011;4243;49.296;11.348;2022-08-14T01:23:10;123.57;;;4.67;;
8411;SDS011;4243;49.296;11.348;2022-08-14T01:25:43;123.13;;;3.87;;
8411;SDS011;4243;49.296;11.348;2022-08-14T01:28:13;123.10;;;3.13;;
8411;SDS011;4243;49.296;11.348;2022-08-14T01:31:01;122.83;;;3.00;;
8411;SDS011;4243;49.296;11.348;2022-08-14T01:33:34;122.73;;;2.87;;
8411;SDS011;4243;49.296;11.348;2022-08-14T01:36:27;122.10;;;2.80;;
8411;SDS011;4243;49.296;11.348;2022-08-14T01:39:08;122.80;;;2.83;;
8411;SDS011;4243;49.296;11.348;2022-08-14T01:41:39;122.57;;;2.97;;
8411;SDS011;4243;49.296;11.348;2022-08-14T01:44:13;122.30;;;3.00;;
8411;SDS011;4243;49.296;11.348;2022-08-14T01:47:06;122.63;;;3.07;;
8411;SDS011;4243;49.296;11.348;2022-08-14T01:49:37;122.80;;;2.87;;
8411;SDS011;4243;49.296;11.348;2022-08-14T01:52:11;122.63;;;2.83;;
8411;SDS011;4243;49.296;11.348;2022-08-14T01:54:59;122.27;;;2.83;;
8411;SDS011;4243;49.296;11.348;2022-08-14T01:57:32;122.63;;;2.90;;
8411;SDS011;4243;49.296;11.348;2022-08-14T02:00:24;122.67;;;2.90;;
8411;SDS011;4243;49.296;11.348;2022-08-14T02:02:54;123.00;;;2.90;;
8411;SDS011;4243;49.296;11.348;2022-08-14T02:05:26;122.67;;;2.80;;
8411;SDS011;4243;49.296;11.348;2022-08-14T02:08:00;123.37;;;3.00;;
8411;SDS011;4243;49.296;11.348;2022-08-14T02:10:36;122.83;;;2.93;;
8411;SDS011;4243;49.296;11.348;2022-08-14T02:13:13;122.93;;;2.87;;
8411;SDS011;4243;49.296;11.348;2022-08-14T02:15:42;123.67;;;2.93;;
8411;SDS011;4243;49.296;11.348;2022-08-14T02:18:11;123.30;;;2.97;;
8411;SDS011;4243;49.296;11.348;2022-08-14T02:20:40;122.67;;;2.87;;
8411;SDS011;4243;49.296;11.348;2022-08-14T02:23:10;123.00;;;2.90;;
8411;SDS011;4243;49.296;11.348;2022-08-14T02:25:40;122.77;;;2.77;;
8411;SDS011;4243;49.296;11.348;2022-08-14T02:28:19;122.80;;;2.77;;
8411;SDS011;4243;49.296;11.348;2022-08-14T02:31:08;122.83;;;3.00;;
8411;SDS011;4243;49.296;11.348;2022-08-14T02:33:40;122.80;;;2.90;;
8411;SDS011;4243;49.296;11.348;2022-08-14T02:36:08;122.40;;;3.00;;
8411;SDS011;4243;49.296;11.348;2022-08-14T02:38:57;122.17;;;3.13;;
8411;SDS011;4243;49.296;11.348;2022-08-14T02:41:24;122.43;;;3.10;;
8411;SDS011;4243;49.296;11.348;2022-08-14T02:43:55;121.77;;;3.07;;
8411;SDS011;4243;49.296;11.348;2022-08-14T02:46:26;122.70;;;3.33;;
8411;SDS011;4243;49.296;11.348;2022-08-14T02:48:59;122.30;;;3.30;;
8411;SDS011;4243;49.296;11.348;2022-08-14T02:51:32;121.80;;;3.37;;
8411;SDS011;4243;49.296;11.348;2022-08-14T02:54:02;121.80;;;2.97;;
8411;SDS011;4243;49.296;11.348;2022-08-14T02:56:33;121.57;;;2.90;;
8411;SDS011;4243;49.296;11.348;2022-08-14T02:59:23;122.10;;;2.87;;
8411;SDS011;4243;49.296;11.348;2022-08-14T03:01:59;121.43;;;2.80;;
8411;SDS011;4243;49.296;11.348;2022-08-14T03:04:29;121.47;;;2.90;;
8411;SDS011;4243;49.296;11.348;2022-08-14T03:06:57;122.37;;;2.90;;
8411;SDS011;4243;49.296;11.348;2022-08-14T03:09:33;121.83;;;3.00;;
8411;SDS011;4243;49.296;11.348;2022-08-14T03:12:24;122.00;;;3.00;;
8411;SDS011;4243;49.296;11.348;2022-08-14T03:14:58;121.43;;;3.10;;
8411;SDS011;4243;49.296;11.348;2022-08-14T03:17:30;121.43;;;3.03;;
8411;SDS011;4243;49.296;11.348;2022-08-14T03:20:18;121.50;;;3.23;;
8411;SDS011;4243;49.296;11.348;2022-08-14T03:22:48;121.97;;;3.20;;
8411;SDS011;4243;49.296;11.348;2022-08-14T03:25:16;121.57;;;3.20;;
8411;SDS011;4243;49.296;11.348;2022-08-14T03:27:46;121.57;;;2.87;;
8411;SDS011;4243;49.296;11.348;2022-08-14T03:30:25;121.37;;;3.27;;
8411;SDS011;4243;49.296;11.348;2022-08-14T03:33:11;121.30;;;3.00;;
8411;SDS011;4243;49.296;11.348;2022-08-14T03:35:39;122.10;;;3.20;;
8411;SDS011;4243;49.296;11.348;2022-08-14T03:38:27;121.97;;;3.20;;
8411;SDS011;4243;49.296;11.348;2022-08-14T03:41:17;121.97;;;3.40;;
8411;SDS011;4243;49.296;11.348;2022-08-14T03:43:52;121.73;;;3.00;;
8411;SDS011;4243;49.296;11.348;2022-08-14T03:46:43;121.60;;;3.20;;
8411;SDS011;4243;49.296;11.348;2022-08-14T03:49:20;121.90;;;3.30;;
8411;SDS011;4243;49.296;11.348;2022-08-14T03:51:55;121.90;;;3.30;;
8411;SDS011;4243;49.296;11.348;2022-08-14T03:54:26;121.70;;;3.20;;
8411;SDS011;4243;49.296;11.348;2022-08-14T03:56:54;121.60;;;3.30;;
8411;SDS011;4243;49.296;11.348;2022-08-14T03:59:29;122.07;;;3.10;;
8411;SDS011;4243;49.296;11.348;2022-08-14T04:01:57;121.70;;;2.97;;
8411;SDS011;4243;49.296;11.348;2022-08-14T04:04:34;121.80;;;3.10;;
8411;SDS011;4243;49.296;11.348;2022-08-14T04:07:04;122.17;;;3.00;;
8411;SDS011;4243;49.296;11.348;2022-08-14T04:09:36;121.87;;;3.10;;
8411;SDS011;4243;49.296;11.348;2022-08-14T04:12:03;121.27;;;2.83;;
8411;SDS011;4243;49.296;11.348;2022-08-14T04:14:38;121.70;;;2.80;;
8411;SDS011;4243;49.296;11.348;2022-08-14T04:17:07;122.10;;;2.93;;
8411;SDS011;4243;49.296;11.348;2022-08-14T04:19:35;121.37;;;2.70;;
8411;SDS011;4243;49.296;11.348;2022-08-14T04:22:04;122.00;;;2.73;;
8411;SDS011;4243;49.296;11.348;2022-08-14T04:24:32;121.10;;;2.80;;
8411;SDS011;4243;49.296;11.348;2022-08-14T04:27:07;121.43;;;2.70;;
8411;SDS011;4243;49.296;11.348;2022-08-14T04:29:37;121.33;;;2.63;;
8411;SDS011;4243;49.296;11.348;2022-08-14T04:32:08;121.77;;;2.80;;
8411;SDS011;4243;49.296;11.348;2022-08-14T04:34:57;121.30;;;2.67;;
8411;SDS011;4243;49.296;11.348;2022-08-14T04:37:25;121.77;;;2.80;;
8411;SDS011;4243;49.296;11.348;2022-08-14T04:40:19;121.80;;;2.63;;
8411;SDS011;4243;49.296;11.348;2022-08-14T04:43:06;121.70;;;2.73;;
8411;SDS011;4243;49.296;11.348;2022-08-14T04:46:05;121.50;;;2.80;;
8411;SDS011;4243;49.296;11.348;2022-08-14T04:48:56;121.27;;;2.70;;
8411;SDS011;4243;49.296;11.348;2022-08-14T04:51:25;121.70;;;2.93;;
8411;SDS011;4243;49.296;11.348;2022-08-14T04:53:55;121.77;;;2.73;;
8411;SDS011;4243;49.296;11.348;2022-08-14T04:56:23;121.67;;;2.90;;
8411;SDS011;4243;49.296;11.348;2022-08-14T04:59:01;121.23;;;2.73;;
8411;SDS011;4243;49.296;11.348;2022-08-14T05:01:37;121.50;;;2.77;;
8411;SDS011;4243;49.296;11.348;2022-08-14T05:04:16;121.30;;;2.70;;
8411;SDS011;4243;49.296;11.348;2022-08-14T05:06:47;121.27;;;2.80;;
8411;SDS011;4243;49.296;11.348;2022-08-14T05:09:20;121.27;;;2.97;;
8411;SDS011;4243;49.296;11.348;2022-08-14T05:11:49;121.00;;;2.70;;
8411;SDS011;4243;49.296;11.348;2022-08-14T05:14:18;120.80;;;2.70;;
8411;SDS011;4243;49.296;11.348;2022-08-14T05:17:07;121.50;;;2.60;;
8411;SDS011;4243;49.296;11.348;2022-08-14T05:19:36;121.27;;;2.70;;
8411;SDS011;4243;49.296;11.348;2022-08-14T05:22:24;121.20;;;2.80;;
8411;SDS011;4243;49.296;11.348;2022-08-14T05:24:52;121.03;;;2.70;;
8411;SDS011;4243;49.296;11.348;2022-08-14T05:27:20;120.80;;;2.70;;
8411;SDS011;4243;49.296;11.348;2022-08-14T05:29:52;120.60;;;2.70;;
8411;SDS011;4243;49.296;11.348;2022-08-14T05:32:23;121.10;;;2.80;;
8411;SDS011;4243;49.296;11.348;2022-08-14T05:34:54;120.93;;;2.77;;
8411;SDS011;4243;49.296;11.348;2022-08-14T05:37:26;120.27;;;2.57;;
8411;SDS011;4243;49.296;11.348;2022-08-14T05:39:56;119.67;;;2.50;;
8411;SDS011;4243;49.296;11.348;2022-08-14T05:42:25;121.20;;;2.83;;
8411;SDS011;4243;49.296;11.348;2022-08-14T05:44:57;119.07;;;2.60;;
8411;SDS011;4243;49.296;11.348;2022-08-14T05:47:25;119.93;;;2.70;;
8411;SDS011;4243;49.296;11.348;2022-08-14T05:49:55;120.13;;;2.87;;
8411;SDS011;4243;49.296;11.348;2022-08-14T05:52:23;120.57;;;2.90;;
8411;SDS011;4243;49.296;11.348;2022-08-14T05:55:08;120.27;;;2.90;;
8411;SDS011;4243;49.296;11.348;2022-08-14T05:57:47;120.20;;;3.00;;
8411;SDS011;4243;49.296;11.348;2022-08-14T06:00:29;120.43;;;3.47;;
8411;SDS011;4243;49.296;11.348;2022-08-14T06:03:06;121.17;;;4.37;;
8411;SDS011;4243;49.296;11.348;2022-08-14T06:05:37;120.63;;;4.47;;
8411;SDS011;4243;49.296;11.348;2022-08-14T06:08:12;120.40;;;4.70;;
8411;SDS011;4243;49.296;11.348;2022-08-14T06:11:06;120.30;;;4.60;;
8411;SDS011;4243;49.296;11.348;2022-08-14T06:13:35;120.33;;;4.50;;
8411;SDS011;4243;49.296;11.348;2022-08-14T06:16:11;118.97;;;3.47;;
8411;SDS011;4243;49.296;11.348;2022-08-14T06:18:46;119.53;;;3.13;;
8411;SDS011;4243;49.296;11.348;2022-08-14T06:21:21;118.87;;;2.97;;
8411;SDS011;4243;49.296;11.348;2022-08-14T06:23:49;117.30;;;2.80;;
8411;SDS011;4243;49.296;11.348;2022-08-14T06:26:17;117.17;;;2.80;;
8411;SDS011;4243;49.296;11.348;2022-08-14T06:28:47;118.07;;;2.73;;
8411;SDS011;4243;49.296;11.348;2022-08-14T06:31:18;118.23;;;2.53;;
8411;SDS011;4243;49.296;11.348;2022-08-14T06:33:48;118.00;;;2.80;;
8411;SDS011;4243;49.296;11.348;2022-08-14T06:36:35;118.70;;;3.03;;
8411;SDS011;4243;49.296;11.348;2022-08-14T06:39:05;118.10;;;2.50;;
8411;SDS011;4243;49.296;11.348;2022-08-14T06:41:36;118.40;;;2.70;;
8411;SDS011;4243;49.296;11.348;2022-08-14T06:44:25;118.97;;;2.70;;
8411;SDS011;4243;49.296;11.348;2022-08-14T06:46:59;118.57;;;2.40;;
8411;SDS011;4243;49.296;11.348;2022-08-14T06:49:27;117.53;;;2.43;;
8411;SDS011;4243;49.296;11.348;2022-08-14T06:51:56;117.53;;;2.60;;
8411;SDS011;4243;49.296;11.348;2022-08-14T06:54:27;117.77;;;2.60;;
8411;SDS011;4243;49.296;11.348;2022-08-14T06:56:57;118.17;;;2.73;;
8411;SDS011;4243;49.296;11.348;2022-08-14T06:59:24;116.97;;;2.87;;
8411;SDS011;4243;49.296;11.348;2022-08-14T07:01:52;117.20;;;2.60;;
8411;SDS011;4243;49.296;11.348;2022-08-14T07:04:44;117.87;;;2.90;;
8411;SDS011;4243;49.296;11.348;2022-08-14T07:07:34;117.30;;;3.03;;
8411;SDS011;4243;49.296;11.348;2022-08-14T07:10:04;118.30;;;3.37;;
8411;SDS011;4243;49.296;11.348;2022-08-14T07:12:42;116.80;;;2.73;;
8411;SDS011;4243;49.296;11.348;2022-08-14T07:15:29;117.77;;;4.37;;
8411;SDS011;4243;49.296;11.348;2022-08-14T07:17:59;117.63;;;3.97;;
8411;SDS011;4243;49.296;11.348;2022-08-14T07:20:28;117.00;;;3.90;;
8411;SDS011;4243;49.296;11.348;2022-08-14T07:22:59;116.17;;;3.70;;
8411;SDS011;4243;49.296;11.348;2022-08-14T07:25:37;115.60;;;2.90;;
8411;SDS011;4243;49.296;11.348;2022-08-14T07:28:14;115.70;;;2.57;;
8411;SDS011;4243;49.296;11.348;2022-08-14T07:30:49;115.37;;;2.43;;
8411;SDS011;4243;49.296;11.348;2022-08-14T07:33:31;116.17;;;3.20;;
8411;SDS011;4243;49.296;11.348;2022-08-14T07:36:09;115.83;;;3.60;;
8411;SDS011;4243;49.296;11.348;2022-08-14T07:38:56;116.07;;;4.57;;
8411;SDS011;4243;49.296;11.348;2022-08-14T07:41:25;117.20;;;6.57;;
8411;SDS011;4243;49.296;11.348;2022-08-14T07:44:01;117.47;;;8.10;;
8411;SDS011;4243;49.296;11.348;2022-08-14T07:46:49;115.67;;;5.37;;
8411;SDS011;4243;49.296;11.348;2022-08-14T07:49:16;114.30;;;3.33;;
8411;SDS011;4243;49.296;11.348;2022-08-14T07:51:45;113.57;;;3.20;;
8411;SDS011;4243;49.296;11.348;2022-08-14T07:54:16;113.10;;;3.27;;
8411;SDS011;4243;49.296;11.348;2022-08-14T07:56:56;112.80;;;4.03;;
8411;SDS011;4243;49.296;11.348;2022-08-14T07:59:26;112.07;;;3.60;;
8411;SDS011;4243;49.296;11.348;2022-08-14T08:03:56;111.90;;;2.90;;
8411;SDS011;4243;49.296;11.348;2022-08-14T08:06:28;111.43;;;3.40;;
8411;SDS011;4243;49.296;11.348;2022-08-14T08:08:57;111.50;;;3.50;;
8411;SDS011;4243;49.296;11.348;2022-08-14T08:11:32;111.33;;;3.30;;
8411;SDS011;4243;49.296;11.348;2022-08-14T08:14:04;110.30;;;2.97;;
8411;SDS011;4243;49.296;11.348;2022-08-14T08:16:42;109.67;;;2.50;;
8411;SDS011;4243;49.296;11.348;2022-08-14T08:19:14;108.77;;;2.17;;
8411;SDS011;4243;49.296;11.348;2022-08-14T08:21:44;108.70;;;2.10;;
8411;SDS011;4243;49.296;11.348;2022-08-14T08:24:12;108.67;;;3.30;;
8411;SDS011;4243;49.296;11.348;2022-08-14T08:26:45;108.67;;;2.90;;
8411;SDS011;4243;49.296;11.348;2022-08-14T08:29:19;107.57;;;2.80;;
8411;SDS011;4243;49.296;11.348;2022-08-14T08:31:55;107.67;;;2.63;;
8411;SDS011;4243;49.296;11.348;2022-08-14T08:34:40;107.47;;;2.97;;
8411;SDS011;4243;49.296;11.348;2022-08-14T08:37:11;107.47;;;2.23;;
8411;SDS011;4243;49.296;11.348;2022-08-14T08:39:44;106.37;;;1.60;;
8411;SDS011;4243;49.296;11.348;2022-08-14T08:42:30;106.80;;;1.77;;
8411;SDS011;4243;49.296;11.348;2022-08-14T08:45:04;105.67;;;2.07;;
8411;SDS011;4243;49.296;11.348;2022-08-14T08:47:40;106.23;;;2.67;;
8411;SDS011;4243;49.296;11.348;2022-08-14T08:50:43;106.57;;;2.73;;
8411;SDS011;4243;49.296;11.348;2022-08-14T08:53:08;106.30;;;2.97;;
8411;SDS011;4243;49.296;11.348;2022-08-14T08:55:38;106.63;;;4.80;;
8411;SDS011;4243;49.296;11.348;2022-08-14T08:58:11;107.67;;;6.70;;
8411;SDS011;4243;49.296;11.348;2022-08-14T09:00:49;107.23;;;7.40;;
8411;SDS011;4243;49.296;11.348;2022-08-14T09:03:23;105.70;;;6.50;;
8411;SDS011;4243;49.296;11.348;2022-08-14T09:06:03;104.77;;;5.23;;
8411;SDS011;4243;49.296;11.348;2022-08-14T09:08:51;103.13;;;2.80;;
8411;SDS011;4243;49.296;11.348;2022-08-14T09:11:22;104.50;;;2.87;;
8411;SDS011;4243;49.296;11.348;2022-08-14T09:13:52;104.67;;;3.00;;
8411;SDS011;4243;49.296;11.348;2022-08-14T09:16:21;105.47;;;3.00;;
8411;SDS011;4243;49.296;11.348;2022-08-14T09:18:52;105.73;;;2.87;;
8411;SDS011;4243;49.296;11.348;2022-08-14T09:21:21;104.17;;;1.97;;
8411;SDS011;4243;49.296;11.348;2022-08-14T09:23:57;103.07;;;1.60;;
8411;SDS011;4243;49.296;11.348;2022-08-14T09:26:47;103.13;;;1.50;;
8411;SDS011;4243;49.296;11.348;2022-08-14T09:29:16;102.43;;;1.50;;
8411;SDS011;4243;49.296;11.348;2022-08-14T09:31:50;102.17;;;1.50;;
8411;SDS011;4243;49.296;11.348;2022-08-14T09:41:09;102.87;;;1.73;;
8411;SDS011;4243;49.296;11.348;2022-08-14T09:48:00;103.67;;;1.67;;
8411;SDS011;4243;49.296;11.348;2022-08-14T09:50:31;102.00;;;1.20;;
8411;SDS011;4243;49.296;11.348;2022-08-14T09:56:29;103.63;;;1.60;;
8411;SDS011;4243;49.296;11.348;2022-08-14T09:59:11;103.10;;;1.70;;
8411;SDS011;4243;49.296;11.348;2022-08-14T10:01:42;101.80;;;1.90;;
8411;SDS011;4243;49.296;11.348;2022-08-14T10:04:22;103.00;;;2.70;;
8411;SDS011;4243;49.296;11.348;2022-08-14T10:07:00;102.47;;;3.37;;
8411;SDS011;4243;49.296;11.348;2022-08-14T10:09:29;103.40;;;3.40;;
8411;SDS011;4243;49.296;11.348;2022-08-14T10:12:00;103.07;;;2.50;;
8411;SDS011;4243;49.296;11.348;2022-08-14T10:14:32;102.67;;;2.57;;
8411;SDS011;4243;49.296;11.348;2022-08-14T10:17:02;102.27;;;4.10;;
8411;SDS011;4243;49.296;11.348;2022-08-14T10:19:34;101.70;;;3.47;;
8411;SDS011;4243;49.296;11.348;2022-08-14T10:22:14;102.70;;;3.53;;
8411;SDS011;4243;49.296;11.348;2022-08-14T10:25:11;101.60;;;2.30;;
8411;SDS011;4243;49.296;11.348;2022-08-14T10:27:40;102.90;;;1.90;;
8411;SDS011;4243;49.296;11.348;2022-08-14T10:30:16;102.77;;;2.10;;
8411;SDS011;4243;49.296;11.348;2022-08-14T10:32:50;104.57;;;3.40;;
8411;SDS011;4243;49.296;11.348;2022-08-14T10:35:20;107.10;;;5.40;;
8411;SDS011;4243;49.296;11.348;2022-08-14T10:37:59;109.47;;;7.90;;
8411;SDS011;4243;49.296;11.348;2022-08-14T10:40:27;108.60;;;5.67;;
8411;SDS011;4243;49.296;11.348;2022-08-14T10:43:14;107.83;;;4.00;;
8411;SDS011;4243;49.296;11.348;2022-08-14T10:45:52;106.87;;;3.93;;
8411;SDS011;4243;49.296;11.348;2022-08-14T10:48:59;106.43;;;3.60;;
8411;SDS011;4243;49.296;11.348;2022-08-14T10:51:30;104.47;;;3.20;;
8411;SDS011;4243;49.296;11.348;2022-08-14T10:54:07;104.97;;;3.50;;
8411;SDS011;4243;49.296;11.348;2022-08-14T10:56:57;105.00;;;2.27;;
8411;SDS011;4243;49.296;11.348;2022-08-14T10:59:47;102.57;;;1.70;;
8411;SDS011;4243;49.296;11.348;2022-08-14T11:02:21;103.03;;;2.30;;
8411;SDS011;4243;49.296;11.348;2022-08-14T11:05:19;104.60;;;3.40;;
8411;SDS011;4243;49.296;11.348;2022-08-14T11:10:37;109.63;;;7.87;;
8411;SDS011;4243;49.296;11.348;2022-08-14T11:13:22;108.67;;;5.23;;
8411;SDS011;4243;49.296;11.348;2022-08-14T11:15:54;108.67;;;3.80;;
8411;SDS011;4243;49.296;11.348;2022-08-14T11:18:27;108.63;;;2.90;;
8411;SDS011;4243;49.296;11.348;2022-08-14T11:21:06;109.60;;;2.33;;
8411;SDS011;4243;49.296;11.348;2022-08-14T11:23:36;110.53;;;3.37;;
8411;SDS011;4243;49.296;11.348;2022-08-14T11:26:09;110.17;;;3.13;;
8411;SDS011;4243;49.296;11.348;2022-08-14T11:28:42;108.87;;;2.10;;
8411;SDS011;4243;49.296;11.348;2022-08-14T11:31:19;107.97;;;1.93;;
8411;SDS011;4243;49.296;11.348;2022-08-14T11:33:53;108.47;;;2.30;;
8411;SDS011;4243;49.296;11.348;2022-08-14T11:36:25;107.07;;;2.40;;
8411;SDS011;4243;49.296;11.348;2022-08-14T11:39:20;105.33;;;2.40;;
8411;SDS011;4243;49.296;11.348;2022-08-14T11:42:03;103.17;;;2.00;;
8411;SDS011;4243;49.296;11.348;2022-08-14T11:44:52;101.17;;;1.80;;
8411;SDS011;4243;49.296;11.348;2022-08-14T11:47:26;101.80;;;1.70;;
8411;SDS011;4243;49.296;11.348;2022-08-14T11:50:09;102.40;;;1.60;;
8411;SDS011;4243;49.296;11.348;2022-08-14T11:53:02;106.67;;;5.00;;
8411;SDS011;4243;49.296;11.348;2022-08-14T11:55:34;110.03;;;8.67;;
8411;SDS011;4243;49.296;11.348;2022-08-14T11:58:06;110.50;;;8.27;;
8411;SDS011;4243;49.296;11.348;2022-08-14T12:00:49;108.77;;;5.90;;
8411;SDS011;4243;49.296;11.348;2022-08-14T12:03:36;105.97;;;4.07;;
8411;SDS011;4243;49.296;11.348;2022-08-14T12:06:22;106.60;;;4.70;;
8411;SDS011;4243;49.296;11.348;2022-08-14T12:09:05;106.10;;;4.10;;
8411;SDS011;4243;49.296;11.348;2022-08-14T12:11:37;104.80;;;3.20;;
8411;SDS011;4243;49.296;11.348;2022-08-14T12:14:12;103.70;;;2.10;;
8411;SDS011;4243;49.296;11.348;2022-08-14T12:17:04;102.70;;;1.40;;
8411;SDS011;4243;49.296;11.348;2022-08-14T12:22:37;101.07;;;2.17;;
8411;SDS011;4243;49.296;11.348;2022-08-14T12:25:19;101.13;;;2.37;;
8411;SDS011;4243;49.296;11.348;2022-08-14T12:27:50;100.53;;;3.57;;
8411;SDS011;4243;49.296;11.348;2022-08-14T12:30:25;102.13;;;6.00;;
8411;SDS011;4243;49.296;11.348;2022-08-14T12:33:30;101.60;;;6.50;;
8411;SDS011;4243;49.296;11.348;2022-08-14T12:35:59;99.37;;;3.53;;
8411;SDS011;4243;49.296;11.348;2022-08-14T12:38:39;100.07;;;3.17;;
8411;SDS011;4243;49.296;11.348;2022-08-14T12:41:10;99.80;;;3.00;;
8411;SDS011;4243;49.296;11.348;2022-08-14T12:44:03;99.70;;;3.53;;
8411;SDS011;4243;49.296;11.348;2022-08-14T12:46:37;98.60;;;2.20;;
8411;SDS011;4243;49.296;11.348;2022-08-14T12:49:12;98.50;;;1.87;;
8411;SDS011;4243;49.296;11.348;2022-08-14T12:51:55;98.30;;;1.50;;
8411;SDS011;4243;49.296;11.348;2022-08-14T12:54:25;98.90;;;1.80;;
8411;SDS011;4243;49.296;11.348;2022-08-14T12:57:05;100.60;;;2.30;;
8411;SDS011;4243;49.296;11.348;2022-08-14T12:59:45;102.37;;;4.50;;
8411;SDS011;4243;49.296;11.348;2022-08-14T13:02:22;104.07;;;5.50;;
8411;SDS011;4243;49.296;11.348;2022-08-14T13:04:53;105.57;;;6.00;;
8411;SDS011;4243;49.296;11.348;2022-08-14T13:07:25;105.57;;;4.90;;
8411;SDS011;4243;49.296;11.348;2022-08-14T13:09:58;105.77;;;5.67;;
8411;SDS011;4243;49.296;11.348;2022-08-14T13:12:48;105.60;;;8.03;;
8411;SDS011;4243;49.296;11.348;2022-08-14T13:15:44;104.33;;;7.50;;
8411;SDS011;4243;49.296;11.348;2022-08-14T13:18:23;103.30;;;6.60;;
8411;SDS011;4243;49.296;11.348;2022-08-14T13:20:54;104.73;;;8.03;;
8411;SDS011;4243;49.296;11.348;2022-08-14T13:23:31;103.37;;;6.23;;
8411;SDS011;4243;49.296;11.348;2022-08-14T13:26:03;101.10;;;4.30;;
8411;SDS011;4243;49.296;11.348;2022-08-14T13:28:32;100.50;;;2.97;;
8411;SDS011;4243;49.296;11.348;2022-08-14T13:31:28;100.20;;;2.40;;
8411;SDS011;4243;49.296;11.348;2022-08-14T13:33:59;100.73;;;2.60;;
8411;SDS011;4243;49.296;11.348;2022-08-14T13:36:29;104.40;;;5.70;;
8411;SDS011;4243;49.296;11.348;2022-08-14T13:39:19;105.57;;;8.00;;
8411;SDS011;4243;49.296;11.348;2022-08-14T13:41:49;105.40;;;6.37;;
8411;SDS011;4243;49.296;11.348;2022-08-14T13:44:22;106.27;;;6.90;;
8411;SDS011;4243;49.296;11.348;2022-08-14T13:46:52;106.17;;;4.47;;
8411;SDS011;4243;49.296;11.348;2022-08-14T13:49:20;106.80;;;4.23;;
8411;SDS011;4243;49.296;11.348;2022-08-14T13:51:49;108.97;;;6.00;;
8411;SDS011;4243;49.296;11.348;2022-08-14T13:54:23;108.70;;;3.83;;
8411;SDS011;4243;49.296;11.348;2022-08-14T13:56:58;107.47;;;2.37;;
8411;SDS011;4243;49.296;11.348;2022-08-14T13:59:29;107.07;;;2.43;;
8411;SDS011;4243;49.296;11.348;2022-08-14T14:02:04;107.40;;;2.60;;
8411;SDS011;4243;49.296;11.348;2022-08-14T14:04:37;106.77;;;2.47;;
8411;SDS011;4243;49.296;11.348;2022-08-14T14:07:15;106.60;;;2.70;;
8411;SDS011;4243;49.296;11.348;2022-08-14T14:09:48;107.27;;;2.80;;
8411;SDS011;4243;49.296;11.348;2022-08-14T14:12:19;107.27;;;2.37;;
8411;SDS011;4243;49.296;11.348;2022-08-14T14:15:07;106.30;;;2.20;;
8411;SDS011;4243;49.296;11.348;2022-08-14T14:17:37;106.17;;;2.60;;
8411;SDS011;4243;49.296;11.348;2022-08-14T14:20:10;105.97;;;4.83;;
8411;SDS011;4243;49.296;11.348;2022-08-14T14:23:01;105.37;;;4.40;;
8411;SDS011;4243;49.296;11.348;2022-08-14T14:25:41;105.60;;;3.70;;
8411;SDS011;4243;49.296;11.348;2022-08-14T14:28:22;105.43;;;3.60;;
8411;SDS011;4243;49.296;11.348;2022-08-14T14:30:57;104.20;;;3.63;;
8411;SDS011;4243;49.296;11.348;2022-08-14T14:33:33;105.00;;;5.03;;
8411;SDS011;4243;49.296;11.348;2022-08-14T14:36:17;105.70;;;7.07;;
8411;SDS011;4243;49.296;11.348;2022-08-14T14:38:55;104.90;;;7.30;;
8411;SDS011;4243;49.296;11.348;2022-08-14T14:41:30;104.90;;;7.10;;
8411;SDS011;4243;49.296;11.348;2022-08-14T14:44:10;104.00;;;6.20;;
8411;SDS011;4243;49.296;11.348;2022-08-14T14:46:41;103.37;;;5.67;;
8411;SDS011;4243;49.296;11.348;2022-08-14T14:49:16;103.57;;;6.37;;
8411;SDS011;4243;49.296;11.348;2022-08-14T14:51:56;104.23;;;5.40;;
8411;SDS011;4243;49.296;11.348;2022-08-14T14:54:24;105.30;;;5.30;;
8411;SDS011;4243;49.296;11.348;2022-08-14T14:57:03;106.43;;;3.67;;
8411;SDS011;4243;49.296;11.348;2022-08-14T14:59:34;108.40;;;5.60;;
8411;SDS011;4243;49.296;11.348;2022-08-14T15:02:03;108.30;;;4.47;;
8411;SDS011;4243;49.296;11.348;2022-08-14T15:04:35;107.40;;;3.33;;
8411;SDS011;4243;49.296;11.348;2022-08-14T15:07:09;106.77;;;2.77;;
8411;SDS011;4243;49.296;11.348;2022-08-14T15:09:37;106.93;;;2.73;;
8411;SDS011;4243;49.296;11.348;2022-08-14T15:12:06;106.27;;;4.10;;
8411;SDS011;4243;49.296;11.348;2022-08-14T15:14:54;107.20;;;5.70;;
8411;SDS011;4243;49.296;11.348;2022-08-14T15:17:23;107.17;;;5.90;;
8411;SDS011;4243;49.296;11.348;2022-08-14T15:20:03;105.20;;;4.33;;
8411;SDS011;4243;49.296;11.348;2022-08-14T15:22:43;106.13;;;4.47;;
8411;SDS011;4243;49.296;11.348;2022-08-14T15:25:16;105.40;;;3.70;;
8411;SDS011;4243;49.296;11.348;2022-08-14T15:27:44;105.90;;;3.90;;
8411;SDS011;4243;49.296;11.348;2022-08-14T15:30:15;106.57;;;4.60;;
8411;SDS011;4243;49.296;11.348;2022-08-14T15:32:57;104.40;;;3.63;;
8411;SDS011;4243;49.296;11.348;2022-08-14T15:35:25;104.77;;;3.30;;
8411;SDS011;4243;49.296;11.348;2022-08-14T15:38:00;105.43;;;3.70;;
8411;SDS011;4243;49.296;11.348;2022-08-14T15:40:34;105.00;;;4.60;;
8411;SDS011;4243;49.296;11.348;2022-08-14T15:43:07;105.23;;;4.13;;
8411;SDS011;4243;49.296;11.348;2022-08-14T15:45:38;104.87;;;4.07;;
8411;SDS011;4243;49.296;11.348;2022-08-14T15:48:06;104.17;;;4.17;;
8411;SDS011;4243;49.296;11.348;2022-08-14T15:50:48;104.67;;;5.00;;